createdAt,value
2022-11-03T00:01:22.099Z,11.00
2022-11-03T00:06:26.463Z,10.80
2022-11-03T00:11:29.669Z,10.70
2022-11-03T00:16:33.109Z,10.60
2022-11-03T00:21:38.023Z,10.50
2022-11-03T00:26:41.148Z,10.50
2022-11-03T00:31:45.450Z,10.40
2022-11-03T00:36:49.827Z,10.40
2022-11-03T00:41:53.534Z,10.30
2022-11-03T00:46:57.249Z,10.40
2022-11-03T00:52:01.506Z,10.30
2022-11-03T00:57:04.574Z,10.40
2022-11-03T01:02:07.683Z,10.40
2022-11-03T01:07:12.205Z,10.40
2022-11-03T01:12:17.272Z,10.50
2022-11-03T01:17:21.894Z,10.60
2022-11-03T01:22:26.224Z,10.90
2022-11-03T01:27:29.165Z,11.10
2022-11-03T01:32:32.098Z,11.40
2022-11-03T01:37:36.394Z,11.70
2022-11-03T01:42:39.329Z,11.90
2022-11-03T01:47:44.430Z,12.20
2022-11-03T01:52:52.333Z,12.30
2022-11-03T01:58:01.043Z,12.50
2022-11-03T02:03:05.246Z,12.60
2022-11-03T02:08:13.584Z,12.70
2022-11-03T02:13:20.778Z,12.70
2022-11-03T02:18:27.168Z,12.80
2022-11-03T02:23:37.226Z,12.80
2022-11-03T02:28:42.112Z,12.90
2022-11-03T02:33:50.955Z,12.90
2022-11-03T02:38:58.554Z,12.90
2022-11-03T02:44:04.032Z,12.90
2022-11-03T02:49:07.128Z,12.90
2022-11-03T02:54:15.695Z,12.90
2022-11-03T02:59:24.514Z,12.80
2022-11-03T03:04:32.836Z,12.80
2022-11-03T03:09:42.078Z,12.80
2022-11-03T03:14:49.231Z,12.80
2022-11-03T03:20:00.268Z,12.70
2022-11-03T03:25:10.359Z,12.60
2022-11-03T03:30:18.439Z,12.60
2022-11-03T03:35:24.632Z,12.60
2022-11-03T03:40:32.564Z,12.50
2022-11-03T03:45:37.856Z,12.50
2022-11-03T03:50:42.432Z,12.40
2022-11-03T03:55:49.279Z,12.30
2022-11-03T04:00:53.694Z,12.20
2022-11-03T04:05:56.804Z,12.20
2022-11-03T04:11:17.558Z,12.20
2022-11-03T04:16:39.480Z,12.10
2022-11-03T04:22:00.246Z,12.20
2022-11-03T04:27:15.493Z,12.20
2022-11-03T04:32:19.801Z,12.20
2022-11-03T04:37:22.739Z,12.20
2022-11-03T04:42:25.773Z,12.10
2022-11-03T04:47:32.084Z,12.00
2022-11-03T04:52:35.135Z,11.90
2022-11-03T04:57:38.109Z,11.70
2022-11-03T05:02:43.038Z,11.60
2022-11-03T05:07:47.901Z,11.40
2022-11-03T05:12:52.753Z,11.30
2022-11-03T05:17:58.100Z,11.10
2022-11-03T05:23:01.893Z,10.90
2022-11-03T05:28:05.325Z,10.80
2022-11-03T05:33:19.525Z,10.60
2022-11-03T05:38:24.018Z,10.50
2022-11-03T05:43:29.190Z,10.30
2022-11-03T05:48:36.232Z,10.20
2022-11-03T05:53:43.557Z,10.10
2022-11-03T05:58:48.806Z,10.00
2022-11-03T06:03:53.327Z,9.90
2022-11-03T06:08:57.938Z,9.80
2022-11-03T06:14:01.033Z,9.80
2022-11-03T06:19:21.747Z,9.70
2022-11-03T06:24:29.800Z,9.60
2022-11-03T06:29:34.826Z,9.60
2022-11-03T06:34:44.182Z,9.50
2022-11-03T06:39:47.491Z,9.50
2022-11-03T06:44:52.115Z,9.40
2022-11-03T06:49:59.268Z,9.30
2022-11-03T06:55:22.486Z,9.20
2022-11-03T07:00:34.150Z,9.10
2022-11-03T07:05:40.143Z,9.00
2022-11-03T07:10:43.302Z,8.90
2022-11-03T07:15:47.695Z,8.80
2022-11-03T07:20:55.163Z,8.90
2022-11-03T07:26:01.760Z,8.80
2022-11-03T07:31:16.648Z,8.80
2022-11-03T07:36:23.621Z,8.90
2022-11-03T07:41:34.007Z,8.90
2022-11-03T07:46:38.101Z,8.90
2022-11-03T07:51:42.851Z,9.00
2022-11-03T07:56:49.318Z,9.10
2022-11-03T08:01:54.543Z,9.20
2022-11-03T08:06:59.018Z,9.40
2022-11-03T08:12:02.034Z,9.60
2022-11-03T08:17:05.046Z,9.90
2022-11-03T08:22:10.271Z,10.20
2022-11-03T08:27:14.857Z,10.40
2022-11-03T08:32:17.823Z,10.70
2022-11-03T08:37:22.326Z,10.90
2022-11-03T08:42:25.591Z,11.10
2022-11-03T08:47:28.599Z,11.30
2022-11-03T08:52:32.932Z,11.60
2022-11-03T08:57:35.899Z,11.80
2022-11-03T09:02:39.006Z,12.20
2022-11-03T09:13:07.569Z,12.70
2022-11-03T09:18:11.021Z,13.00
2022-11-03T09:23:15.464Z,13.20
2022-11-03T09:28:18.579Z,13.40
2022-11-03T09:33:21.873Z,13.60
2022-11-03T09:38:26.306Z,13.70
2022-11-03T09:43:29.406Z,13.80
2022-11-03T09:48:32.698Z,13.90
2022-11-03T09:53:37.083Z,14.00
2022-11-03T09:58:41.387Z,14.10
2022-11-03T10:03:45.129Z,14.20
2022-11-03T10:08:50.342Z,14.30
2022-11-03T10:13:56.083Z,14.40
2022-11-03T10:19:00.540Z,14.50
2022-11-03T10:24:05.163Z,14.60
2022-11-03T10:29:09.793Z,14.70
2022-11-03T10:34:26.577Z,14.80
2022-11-03T10:39:32.054Z,14.80
2022-11-03T10:44:35.033Z,14.90
2022-11-03T10:49:43.281Z,14.90
2022-11-03T10:54:48.391Z,15.00
2022-11-03T10:59:54.293Z,15.00
2022-11-03T11:05:00.730Z,15.10
2022-11-03T11:10:13.769Z,15.00
2022-11-03T11:15:36.954Z,15.10
2022-11-03T11:20:41.436Z,15.20
2022-11-03T11:26:16.305Z,15.20
2022-11-03T11:31:30.875Z,15.20
2022-11-03T11:36:33.954Z,15.20
2022-11-03T11:42:14.476Z,15.20
2022-11-03T11:47:40.324Z,15.30
2022-11-03T11:52:45.617Z,15.30
2022-11-03T11:57:50.472Z,15.20
2022-11-03T12:02:54.364Z,15.20
2022-11-03T12:07:59.093Z,15.20
2022-11-03T12:13:23.810Z,15.20
2022-11-03T12:18:35.104Z,15.30
2022-11-03T12:23:43.095Z,15.20
2022-11-03T12:28:47.467Z,15.20
2022-11-03T12:33:50.396Z,15.10
2022-11-03T12:38:54.083Z,15.10
2022-11-03T12:43:58.609Z,15.10
2022-11-03T12:49:01.791Z,15.10
2022-11-03T12:54:05.025Z,15.10
2022-11-03T12:59:10.573Z,15.10
2022-11-03T13:04:13.675Z,15.00
2022-11-03T13:09:16.615Z,14.90
2022-11-03T13:14:21.175Z,14.90
2022-11-03T13:19:25.353Z,14.80
2022-11-03T13:24:29.701Z,14.80
2022-11-03T13:29:35.875Z,14.80
2022-11-03T13:34:39.738Z,14.80
2022-11-03T13:39:42.709Z,14.80
2022-11-03T13:44:47.326Z,14.80
2022-11-03T13:50:13.078Z,14.80
2022-11-03T14:00:40.013Z,14.80
2022-11-03T14:05:43.116Z,14.80
2022-11-03T14:10:46.199Z,14.80
2022-11-03T14:15:50.768Z,14.80
2022-11-03T14:20:53.966Z,14.70
2022-11-03T14:26:13.032Z,14.70
2022-11-03T14:31:21.278Z,14.70
2022-11-03T14:36:24.223Z,14.70
2022-11-03T14:41:44.711Z,14.70
2022-11-03T14:46:49.040Z,14.70
2022-11-03T14:51:52.604Z,14.70
2022-11-03T14:56:56.277Z,14.70
2022-11-03T15:02:01.238Z,14.70
2022-11-03T15:07:04.316Z,14.70
2022-11-03T15:12:07.709Z,14.70
2022-11-03T15:17:12.183Z,14.80
2022-11-03T15:22:15.868Z,14.80
2022-11-03T15:27:19.306Z,14.80
2022-11-03T15:32:23.935Z,14.80
2022-11-03T15:37:26.912Z,14.80
2022-11-03T15:42:29.858Z,14.90
2022-11-03T15:47:34.296Z,14.90
2022-11-03T15:52:39.148Z,14.90
2022-11-03T15:57:42.285Z,14.90
2022-11-03T16:02:47.782Z,14.90
2022-11-03T16:07:51.372Z,14.80
2022-11-03T16:12:54.379Z,14.80
2022-11-03T16:18:03.056Z,14.70
2022-11-03T16:23:06.599Z,14.70
2022-11-03T16:28:10.012Z,14.60
2022-11-03T16:33:14.852Z,14.50
2022-11-03T16:38:18.097Z,14.50
2022-11-03T16:43:21.071Z,14.40
2022-11-03T16:48:25.421Z,14.40
2022-11-03T16:53:28.471Z,14.40
2022-11-03T16:58:31.850Z,14.40
2022-11-03T17:03:36.259Z,14.30
2022-11-03T17:08:52.277Z,14.30
2022-11-03T17:13:55.635Z,14.30
2022-11-03T17:19:00.102Z,14.30
2022-11-03T17:24:03.938Z,14.30
2022-11-03T17:29:07.207Z,14.20
2022-11-03T17:34:12.984Z,14.10
2022-11-03T17:39:17.606Z,14.10
2022-11-03T17:44:20.762Z,14.00
2022-11-03T17:49:25.159Z,14.00
2022-11-03T17:54:31.569Z,13.90
2022-11-03T17:59:34.676Z,13.90
2022-11-03T18:04:40.376Z,13.80
2022-11-03T18:09:43.708Z,13.90
2022-11-03T18:14:49.555Z,13.90
2022-11-03T18:19:54.698Z,13.90
2022-11-03T18:24:58.187Z,13.90
2022-11-03T18:30:01.196Z,14.00
2022-11-03T18:35:06.462Z,14.00
2022-11-03T18:40:12.021Z,14.00
2022-11-03T18:45:17.774Z,14.00
2022-11-03T18:50:22.915Z,14.10
2022-11-03T18:55:26.160Z,14.10
2022-11-03T19:00:29.278Z,14.10
2022-11-03T19:05:35.179Z,14.20
2022-11-03T19:10:38.211Z,14.20
2022-11-03T19:15:41.211Z,14.20
2022-11-03T19:20:45.547Z,14.20
2022-11-03T19:25:49.868Z,14.20
2022-11-03T19:30:57.653Z,14.20
2022-11-03T19:36:02.722Z,14.20
2022-11-03T19:41:23.020Z,14.20
2022-11-03T19:46:26.181Z,14.20
2022-11-03T19:51:30.711Z,14.20
2022-11-03T19:56:33.999Z,14.20
2022-11-03T20:01:37.071Z,14.20
2022-11-03T20:06:41.819Z,14.20
2022-11-03T20:11:44.960Z,14.20
2022-11-03T20:16:47.950Z,14.10
2022-11-03T20:21:52.508Z,14.10
2022-11-03T20:26:55.478Z,14.10
2022-11-03T20:31:58.434Z,14.10
2022-11-03T20:37:04.605Z,14.00
2022-11-03T20:42:18.822Z,14.00
2022-11-03T20:47:22.060Z,14.00
2022-11-03T20:52:26.504Z,14.10
2022-11-03T20:57:29.473Z,14.10
2022-11-03T21:02:32.648Z,14.20
2022-11-03T21:07:39.506Z,14.20
2022-11-03T21:12:43.089Z,14.20
2022-11-03T21:18:03.469Z,14.30
2022-11-03T21:23:16.759Z,14.30
2022-11-03T21:28:20.907Z,14.30
2022-11-03T21:33:24.191Z,14.40
2022-11-03T21:38:28.509Z,14.40
2022-11-03T21:43:48.744Z,14.40
2022-11-03T21:49:09.154Z,14.40
2022-11-03T21:54:13.580Z,14.40
2022-11-03T21:59:16.723Z,14.40
2022-11-03T22:04:19.999Z,14.40
2022-11-03T22:09:24.777Z,14.40
2022-11-03T22:14:47.908Z,14.40
2022-11-03T22:20:08.277Z,14.40
2022-11-03T22:25:29.820Z,14.40
2022-11-03T22:30:50.147Z,14.50
2022-11-03T22:36:10.419Z,14.50
2022-11-03T22:41:32.209Z,14.50
2022-11-03T22:46:35.179Z,14.50
2022-11-03T22:51:38.177Z,14.50
2022-11-03T22:56:42.554Z,14.50
2022-11-03T23:01:45.656Z,14.40
2022-11-03T23:06:48.672Z,14.50
2022-11-03T23:11:52.926Z,14.50
2022-11-03T23:16:55.865Z,14.50
2022-11-03T23:21:59.427Z,14.40
2022-11-03T23:27:04.537Z,14.40
2022-11-03T23:32:08.035Z,14.40
2022-11-03T23:37:11.019Z,14.40
2022-11-03T23:42:15.614Z,14.50
2022-11-03T23:47:36.159Z,14.40
2022-11-03T23:52:39.147Z,14.40
2022-11-03T23:58:00.867Z,14.40
